Time;durP1;ratioP1;P1;durP2;ratioP2;P2;SDS_P1;SDS_P2;PMS_P1;PMS_P2;Temp;Humidity;BMP_temperature;BMP_pressure;BME280_temperature;BME280_humidity;BME280_pressure;Samples;Min_cycle;Max_cycle;Signal;HPM_P1;HPM_P2
2021/11/17 02:25:54;;;;;;;0.00;0.00;;;;;;;5.60;84.48;102086.94;5077589;28;20452;-75
2021/11/17 02:28:35;;;;;;;0.00;0.00;;;;;;;5.56;84.27;102084.94;5077399;28;20028;-74
2021/11/17 02:31:16;;;;;;;0.30;0.30;;;;;;;5.58;84.57;102085.00;5059513;28;20036;-72
2021/11/17 02:34:04;;;;;;;0.10;0.10;;;;;;;5.60;84.57;102083.44;5076791;28;20032;-72
2021/11/17 02:36:29;;;;;;;0.10;0.10;;;;;;;5.57;84.69;102078.94;5031179;28;20043;-75
2021/11/17 02:39:04;;;;;;;0.00;0.00;;;;;;;5.59;84.69;102087.72;5075768;28;20036;-73
2021/11/17 02:41:58;;;;;;;0.40;0.40;;;;;;;5.62;84.61;102093.13;5077459;28;20024;-73
2021/11/17 02:44:35;;;;;;;1.00;0.97;;;;;;;5.61;84.59;102091.31;5077214;28;20354;-73
2021/11/17 02:47:34;;;;;;;0.03;0.03;;;;;;;5.61;84.83;102091.31;5077257;28;20103;-73
2021/11/17 02:50:07;;;;;;;0.10;0.10;;;;;;;5.69;84.41;102091.88;5076528;28;20043;-71
2021/11/17 02:52:51;;;;;;;0.10;0.10;;;;;;;5.67;84.63;102085.63;5076906;28;20578;-72
2021/11/17 02:55:59;;;;;;;0.00;0.00;;;;;;;5.69;84.94;102085.75;5078642;28;20383;-75
2021/11/17 02:58:48;;;;;;;0.10;0.10;;;;;;;5.68;85.08;102078.75;5046051;28;20036;-71
2021/11/17 03:01:14;;;;;;;0.00;0.00;;;;;;;5.73;84.98;102069.59;5065924;28;20311;-72
2021/11/17 03:03:57;;;;;;;0.10;0.10;;;;;;;5.78;84.64;102066.50;5083562;28;20029;-72
2021/11/17 03:06:57;;;;;;;0.10;0.10;;;;;;;5.78;84.65;102075.97;5065995;28;20461;-72
2021/11/17 03:09:41;;;;;;;0.00;0.00;;;;;;;5.73;84.83;102067.00;5083643;28;20429;-72
2021/11/17 03:12:21;;;;;;;0.10;0.10;;;;;;;5.71;84.97;102063.34;5083015;28;20272;-72
2021/11/17 03:15:29;;;;;;;0.10;0.10;;;;;;;5.75;84.92;102057.59;5083645;28;20094;-71
2021/11/17 03:18:40;;;;;;;0.00;0.00;;;;;;;5.72;84.93;102060.00;5074992;28;20086;-73
2021/11/17 03:21:05;;;;;;;0.10;0.10;;;;;;;5.73;85.03;102067.88;5064020;28;20041;-71
2021/11/17 03:23:52;;;;;;;0.10;0.10;;;;;;;5.71;84.89;102063.34;5083524;28;20038;-72
2021/11/17 03:26:48;;;;;;;0.00;0.00;;;;;;;5.75;85.03;102055.88;5083590;28;20031;-72
2021/11/17 03:29:29;;;;;;;0.10;0.10;;;;;;;5.78;84.75;102053.50;5082444;28;20043;-72
2021/11/17 03:32:22;;;;;;;0.00;0.00;;;;;;;5.78;84.95;102044.78;5083191;28;20109;-76
2021/11/17 03:35:15;;;;;;;0.10;0.10;;;;;;;5.78;84.89;102048.28;5082755;28;20032;-72
2021/11/17 03:38:02;;;;;;;0.10;0.10;;;;;;;5.74;85.16;102030.69;5083718;28;20290;-73
2021/11/17 03:40:27;;;;;;;;;;;;;;;5.74;85.02;102029.78;5083583;28;20391;-72
2021/11/17 03:43:20;;;;;;;0.10;0.10;;;;;;;5.79;84.86;102025.78;5083336;28;19912;-73
2021/11/17 03:46:07;;;;;;;0.10;0.10;;;;;;;5.75;85.01;102024.69;5083460;28;20025;-72
2021/11/17 03:48:32;;;;;;;0.10;0.10;;;;;;;5.78;84.86;102026.59;5064628;28;20093;-72
2021/11/17 03:51:14;;;;;;;0.10;0.10;;;;;;;5.76;84.93;102020.41;5082986;28;20111;-72
2021/11/17 03:54:08;;;;;;;0.00;0.00;;;;;;;5.74;85.24;102024.59;5083140;28;20044;-71
2021/11/17 03:56:56;;;;;;;0.10;0.10;;;;;;;5.75;85.32;102029.00;4994760;28;20334;-73
2021/11/17 03:59:37;;;;;;;0.00;0.00;;;;;;;5.77;85.08;102030.91;5083243;28;20025;-71
2021/11/17 04:02:06;;;;;;;0.07;0.07;;;;;;;5.72;85.29;102014.09;5065367;28;20489;-74
2021/11/17 04:04:43;;;;;;;0.00;0.00;;;;;;;5.72;85.05;102019.28;5081959;28;20127;-73
2021/11/17 04:07:39;;;;;;;0.10;0.10;;;;;;;5.73;85.19;102021.09;5080504;28;20430;-77
2021/11/17 04:10:26;;;;;;;0.00;0.00;;;;;;;5.76;85.37;102021.31;5079387;28;20043;-71
2021/11/17 04:13:04;;;;;;;0.13;0.13;;;;;;;5.78;85.58;102022.31;5079932;28;20067;-72
2021/11/17 04:15:29;;;;;;;0.00;0.00;;;;;;;5.80;85.00;102024.09;5080057;28;20051;-73
2021/11/17 04:18:04;;;;;;;0.10;0.10;;;;;;;5.84;85.17;102023.53;5079227;28;20108;-71
2021/11/17 04:20:51;;;;;;;0.10;0.10;;;;;;;5.89;85.31;102016.91;5078994;28;20024;-71
2021/11/17 04:23:34;;;;;;;0.37;0.37;;;;;;;5.91;85.23;102015.31;5079517;28;20073;-72
2021/11/17 04:26:05;;;;;;;1.70;0.53;;;;;;;5.89;85.39;102001.31;5079188;28;20391;-72
2021/11/17 04:28:59;;;;;;;0.00;0.00;;;;;;;5.91;85.38;102016.22;5079599;28;20047;-72
2021/11/17 04:31:27;;;;;;;0.00;0.00;;;;;;;5.91;85.54;102016.22;5079306;28;20111;-72
2021/11/17 04:34:10;;;;;;;0.10;0.10;;;;;;;5.96;85.61;102015.59;5078909;28;20099;-74
2021/11/17 04:36:57;;;;;;;0.10;0.10;;;;;;;5.98;85.27;102020.13;5063211;28;20111;-73
2021/11/17 04:39:55;;;;;;;;;;;;;;;5.98;85.24;102032.22;5079198;28;20044;-72
2021/11/17 04:42:41;;;;;;;0.10;0.10;;;;;;;5.98;85.21;102029.63;5045269;28;19939;-73
2021/11/17 04:45:13;;;;;;;0.10;0.10;;;;;;;6.00;85.61;102030.63;5078587;28;20047;-72
2021/11/17 04:47:47;;;;;;;0.10;0.10;;;;;;;6.02;85.44;102034.25;5079581;28;20024;-73
2021/11/17 04:50:54;;;;;;;0.10;0.10;;;;;;;6.03;85.58;102028.25;5078502;28;20064;-72
2021/11/17 04:53:28;;;;;;;0.00;0.00;;;;;;;6.03;85.50;102029.16;4998891;28;20052;-71
2021/11/17 04:56:09;;;;;;;0.10;0.10;;;;;;;6.13;85.37;102033.28;5061106;28;20036;-72
2021/11/17 04:58:53;;;;;;;0.20;0.20;;;;;;;6.14;85.35;102026.34;5077096;28;20031;-72
2021/11/17 05:01:25;;;;;;;0.00;0.00;;;;;;;6.13;85.47;102035.88;5078402;28;20036;-73
2021/11/17 05:04:30;;;;;;;0.00;0.00;;;;;;;6.15;86.00;102036.88;5078498;28;20024;-72
2021/11/17 05:07:05;;;;;;;0.10;0.10;;;;;;;6.21;85.23;102038.97;5076110;28;20391;-72
2021/11/17 05:09:49;;;;;;;0.00;0.00;;;;;;;6.22;85.18;102032.97;5078552;28;20039;-71
2021/11/17 05:12:44;;;;;;;0.10;0.10;;;;;;;6.20;85.51;102029.38;5077716;28;20040;-70
2021/11/17 05:15:33;;;;;;;0.10;0.10;;;;;;;6.22;85.55;102021.69;5061137;28;20146;-71
2021/11/17 05:18:13;;;;;;;0.00;0.00;;;;;;;6.25;85.50;102016.66;5078206;28;20024;-70
2021/11/17 05:20:44;;;;;;;0.10;0.10;;;;;;;6.27;85.54;102020.25;5078670;28;20283;-71
2021/11/17 05:23:16;;;;;;;0.10;0.10;;;;;;;6.28;85.72;102020.34;5078133;28;20024;-71
2021/11/17 05:25:41;;;;;;;0.30;0.30;;;;;;;6.31;85.76;102027.47;5060914;28;20058;-71
2021/11/17 05:28:25;;;;;;;0.00;0.00;;;;;;;6.32;85.93;102037.06;5077569;28;20036;-71
2021/11/17 05:30:59;;;;;;;0.30;0.30;;;;;;;6.37;85.77;102033.06;5077741;28;20530;-72
2021/11/17 05:33:43;;;;;;;0.00;0.00;;;;;;;6.38;85.97;102031.34;5077678;28;20714;-70
2021/11/17 05:36:29;;;;;;;0.20;0.20;;;;;;;6.40;85.89;102041.06;5078097;28;20036;-70
2021/11/17 05:39:04;;;;;;;0.10;0.10;;;;;;;6.44;85.90;102035.28;5077321;28;20024;-70
2021/11/17 05:41:41;;;;;;;0.10;0.10;;;;;;;6.46;85.93;102028.47;5078046;28;20020;-72
2021/11/17 05:44:18;;;;;;;0.00;0.00;;;;;;;6.49;86.00;102035.56;5060364;28;20028;-71
2021/11/17 05:46:56;;;;;;;0.10;0.10;;;;;;;6.54;85.90;102035.84;5077467;28;20413;-71
2021/11/17 05:49:30;;;;;;;0.00;0.00;;;;;;;6.57;85.85;102042.16;5077238;28;20024;-72
2021/11/17 05:52:06;;;;;;;0.10;0.10;;;;;;;6.57;85.94;102038.66;5077881;28;20052;-71
2021/11/17 05:54:47;;;;;;;;;;;;;;;6.62;86.07;102038.94;5078046;28;20052;-71
2021/11/17 05:57:39;;;;;;;0.00;0.00;;;;;;;6.66;85.79;102038.34;5077441;28;19912;-71
2021/11/17 06:00:36;;;;;;;0.00;0.00;;;;;;;6.68;85.93;102045.47;5056820;28;20387;-70
2021/11/17 06:03:14;;;;;;;0.10;0.10;;;;;;;6.72;86.03;102046.53;5077509;28;20265;-73
2021/11/17 06:05:39;;;;;;;0.00;0.00;;;;;;;6.80;85.92;102037.50;5077584;28;20264;-73
2021/11/17 06:08:04;;;;;;;0.00;0.00;;;;;;;6.80;85.95;102034.00;5059511;28;20051;-71
2021/11/17 06:10:29;;;;;;;0.00;0.00;;;;;;;6.82;85.84;102038.50;5076897;28;20040;-72
2021/11/17 06:12:55;;;;;;;0.10;0.10;;;;;;;6.80;85.90;102036.59;5077262;28;20031;-71
2021/11/17 06:15:21;;;;;;;0.00;0.00;;;;;;;6.83;86.09;102039.38;5060083;28;20146;-71
2021/11/17 06:17:48;;;;;;;0.37;0.37;;;;;;;6.82;85.98;102037.59;5077341;28;20443;-71
2021/11/17 06:20:16;;;;;;;0.10;0.10;;;;;;;6.86;85.75;102037.88;5076438;28;20281;-71
2021/11/17 06:23:03;;;;;;;0.10;0.10;;;;;;;6.85;86.51;102032.59;5059645;28;20398;-71
2021/11/17 06:25:30;;;;;;;0.00;0.00;;;;;;;6.87;86.05;102036.19;5077387;28;20016;-71
2021/11/17 06:27:58;;;;;;;0.10;0.10;;;;;;;6.91;86.45;102024.25;5059658;28;20055;-71
2021/11/17 06:30:24;;;;;;;0.10;0.10;;;;;;;6.89;86.28;102031.97;5076727;28;20060;-70
2021/11/17 06:32:51;;;;;;;0.40;0.40;;;;;;;6.91;86.39;102038.16;5043280;28;20122;-72
2021/11/17 06:35:17;;;;;;;0.10;0.10;;;;;;;6.96;86.32;102041.97;5076455;28;20029;-74
2021/11/17 06:37:43;;;;;;;0.00;0.00;;;;;;;7.05;86.08;102039.06;5059911;28;20028;-72
2021/11/17 06:40:13;;;;;;;0.00;0.00;;;;;;;7.01;86.18;102037.97;5058589;28;20097;-71
2021/11/17 06:42:49;;;;;;;0.00;0.00;;;;;;;7.02;86.33;102041.44;5077578;28;20360;-71
2021/11/17 06:45:33;;;;;;;0.03;0.03;;;;;;;7.03;86.53;102050.19;5076610;28;20103;-72
2021/11/17 06:47:59;;;;;;;0.07;0.07;;;;;;;7.05;86.47;102052.06;5076503;28;20673;-70
2021/11/17 06:50:24;;;;;;;0.00;0.00;;;;;;;7.05;86.60;102052.06;5076606;28;20145;-70
2021/11/17 06:52:51;;;;;;;0.00;0.00;;;;;;;7.04;86.78;102054.56;5077168;28;20395;-69
2021/11/17 06:55:17;;;;;;;0.00;0.00;;;;;;;7.04;86.79;102063.28;5076464;28;20030;-68
2021/11/17 06:57:42;;;;;;;0.10;0.10;;;;;;;7.08;87.01;102059.16;5076803;28;20112;-68
2021/11/17 07:00:11;;;;;;;0.10;0.10;;;;;;;7.07;86.91;102065.16;5058922;28;20136;-68
2021/11/17 07:02:37;;;;;;;0.00;0.00;;;;;;;7.08;87.09;102062.69;5058907;28;20119;-68
2021/11/17 07:05:04;;;;;;;0.00;0.00;;;;;;;7.11;87.05;102073.28;5076335;28;20302;-68
2021/11/17 07:07:29;;;;;;;0.00;0.00;;;;;;;7.12;87.17;102067.25;5076854;28;20333;-68
2021/11/17 07:09:55;;;;;;;0.10;0.10;;;;;;;7.14;87.29;102081.28;5058666;28;20025;-68
2021/11/17 07:12:20;;;;;;;0.00;0.00;;;;;;;7.18;87.18;102092.81;5076663;28;20395;-68
2021/11/17 07:14:45;;;;;;;0.10;0.10;;;;;;;7.19;87.09;102081.56;5076662;28;20035;-67
2021/11/17 07:17:11;;;;;;;0.00;0.00;;;;;;;7.18;87.64;102079.78;5076382;28;20032;-66
2021/11/17 07:19:37;;;;;;;0.00;0.00;;;;;;;7.22;87.42;102084.38;5058785;28;20029;-67
2021/11/17 07:22:07;;;;;;;0.10;0.10;;;;;;;7.21;87.47;102079.06;5076010;28;20021;-68
2021/11/17 07:24:34;;;;;;;0.10;0.10;;;;;;;7.21;87.60;102082.56;5076612;28;20108;-68
2021/11/17 07:27:00;;;;;;;0.00;0.00;;;;;;;7.23;87.65;102078.34;5076520;28;20029;-68
2021/11/17 07:29:26;;;;;;;1.17;1.17;;;;;;;7.24;87.59;102089.69;5075889;28;20096;-68
2021/11/17 07:31:52;;;;;;;0.00;0.00;;;;;;;7.25;87.85;102087.19;5076619;28;20013;-69
2021/11/17 07:34:18;;;;;;;0.10;0.10;;;;;;;7.26;87.77;102086.38;5075909;28;20036;-68
2021/11/17 07:36:44;;;;;;;0.00;0.00;;;;;;;7.28;87.80;102102.06;5076782;28;20025;-71
2021/11/17 07:39:14;;;;;;;0.00;0.00;;;;;;;7.31;87.90;102103.97;5076228;28;20025;-70
2021/11/17 07:41:47;;;;;;;0.00;0.00;;;;;;;7.31;88.03;102102.28;5076874;28;20027;-70
2021/11/17 07:44:16;;;;;;;0.10;0.10;;;;;;;7.33;87.94;102105.00;5079924;28;20353;-70
2021/11/17 07:46:46;;;;;;;0.00;0.00;;;;;;;7.34;88.04;102096.38;5079969;28;20295;-70
2021/11/17 07:49:11;;;;;;;0.00;0.00;;;;;;;7.30;87.89;102100.50;5062081;28;20082;-71
2021/11/17 07:51:37;;;;;;;0.67;0.67;;;;;;;7.33;87.96;102107.59;5050470;28;20025;-70
2021/11/17 07:54:02;;;;;;;0.10;0.10;;;;;;;7.35;88.13;102119.91;5079406;28;20103;-70
2021/11/17 07:56:28;;;;;;;0.00;0.00;;;;;;;7.37;88.09;102118.31;5065453;28;20040;-70
2021/11/17 07:58:53;;;;;;;0.37;0.37;;;;;;;7.39;88.12;102120.97;5065700;28;20025;-71
2021/11/17 08:01:19;;;;;;;0.10;0.10;;;;;;;7.40;88.03;102133.22;5062321;28;20444;-70
2021/11/17 08:03:47;;;;;;;0.00;0.00;;;;;;;7.44;88.35;102132.59;5045485;28;20397;-70
2021/11/17 08:06:14;;;;;;;0.00;0.00;;;;;;;7.50;88.40;102132.06;5061876;28;20089;-70
2021/11/17 08:08:40;;;;;;;0.00;0.00;;;;;;;7.52;88.20;102131.38;5062499;28;20581;-70
2021/11/17 08:11:09;;;;;;;0.00;0.00;;;;;;;7.55;88.16;102136.75;5044999;28;20103;-71
2021/11/17 08:13:37;;;;;;;0.10;0.10;;;;;;;7.55;88.21;102130.66;5061611;28;20035;-70
2021/11/17 08:16:02;;;;;;;0.10;0.10;;;;;;;7.56;88.54;102133.34;5060637;28;20024;-70
2021/11/17 08:18:28;;;;;;;0.00;0.00;;;;;;;7.58;88.22;102140.38;5061095;28;20043;-70
2021/11/17 08:20:53;;;;;;;0.00;0.00;;;;;;;7.64;88.16;102131.22;5078271;28;20044;-70
2021/11/17 08:23:19;;;;;;;0.00;0.00;;;;;;;7.65;88.33;102140.84;5044669;28;20143;-69
2021/11/17 08:25:47;;;;;;;0.70;0.70;;;;;;;7.64;88.19;102133.84;5061152;28;20023;-71
2021/11/17 08:28:12;;;;;;;0.00;0.00;;;;;;;7.66;88.25;102141.75;5077700;28;20036;-70
2021/11/17 08:30:39;;;;;;;0.00;0.00;;;;;;;7.68;88.13;102142.75;5079285;28;20032;-70
2021/11/17 08:33:05;;;;;;;0.10;0.10;;;;;;;7.68;88.21;102145.34;5078190;28;20024;-70
2021/11/17 08:35:31;;;;;;;0.07;0.07;;;;;;;7.70;88.79;102152.47;5078841;28;20166;-69
2021/11/17 08:37:58;;;;;;;0.03;0.03;;;;;;;7.73;88.23;102143.94;5061562;28;20370;-70
2021/11/17 08:40:35;;;;;;;0.00;0.00;;;;;;;7.73;88.16;102143.03;5071182;28;20124;-70
2021/11/17 08:43:00;;;;;;;0.10;0.10;;;;;;;7.77;88.35;102153.72;5075904;28;20035;-69
2021/11/17 08:45:27;;;;;;;0.10;0.10;;;;;;;7.79;87.93;102153.84;5078084;28;20094;-70
2021/11/17 08:47:53;;;;;;;0.00;0.00;;;;;;;7.80;88.15;102163.44;5061474;28;20032;-71
2021/11/17 08:50:22;;;;;;;0.00;0.00;;;;;;;7.79;88.41;102164.25;5078393;28;20028;-70
2021/11/17 08:52:49;;;;;;;0.00;0.00;;;;;;;7.78;88.24;102162.47;5078358;28;20024;-70
2021/11/17 08:55:15;;;;;;;0.00;0.00;;;;;;;7.80;88.30;102168.66;5078375;28;20032;-70
2021/11/17 08:57:42;;;;;;;0.10;0.10;;;;;;;7.80;88.37;102169.56;5076744;28;20343;-70
2021/11/17 09:00:11;;;;;;;0.00;0.00;;;;;;;7.84;88.24;102168.94;5078514;28;20032;-69
2021/11/17 09:02:44;;;;;;;0.00;0.00;;;;;;;7.86;88.29;102176.88;5066850;28;20099;-69
2021/11/17 09:05:17;;;;;;;0.00;0.00;;;;;;;7.90;88.67;102168.41;5069608;28;20541;-68
2021/11/17 09:07:44;;;;;;;0.00;0.00;;;;;;;7.95;88.46;102171.28;5058616;28;20045;-68
2021/11/17 09:10:16;;;;;;;0.00;0.00;;;;;;;8.02;88.41;102170.84;5049979;28;20031;-69
2021/11/17 09:12:41;;;;;;;0.00;0.00;;;;;;;8.07;88.43;102178.97;5058634;28;20078;-69
2021/11/17 09:15:09;;;;;;;0.03;0.03;;;;;;;8.08;88.38;102173.84;5078217;28;20029;-69
2021/11/17 09:17:36;;;;;;;0.00;0.00;;;;;;;8.13;88.23;102174.13;5060376;28;20036;-69
2021/11/17 09:20:02;;;;;;;0.00;0.00;;;;;;;8.21;88.32;102177.16;5060229;28;20115;-69
2021/11/17 09:22:28;;;;;;;0.10;0.10;;;;;;;8.28;88.49;102181.06;5072593;28;20025;-69
2021/11/17 09:24:53;;;;;;;0.00;0.00;;;;;;;8.32;88.77;102190.84;5074769;28;20303;-69
2021/11/17 09:27:19;;;;;;;0.10;0.10;;;;;;;8.37;88.19;102185.13;5076108;28;20032;-68
2021/11/17 09:29:45;;;;;;;0.00;0.00;;;;;;;8.41;88.27;102186.16;5073721;28;20088;-69
2021/11/17 09:32:11;;;;;;;0.63;0.63;;;;;;;8.48;88.08;102193.56;5066596;28;20044;-69
2021/11/17 09:34:38;;;;;;;0.20;0.20;;;;;;;8.57;88.17;102185.41;5057509;28;20028;-69
2021/11/17 09:37:03;;;;;;;0.07;0.07;;;;;;;8.64;88.05;102184.03;5067072;28;20041;-70
2021/11/17 09:39:30;;;;;;;0.00;0.00;;;;;;;8.76;88.11;102194.28;5039226;28;20099;-69
2021/11/17 09:41:55;;;;;;;0.30;0.30;;;;;;;8.80;88.11;102191.94;5070688;28;20123;-67
2021/11/17 09:44:32;;;;;;;0.00;0.00;;;;;;;8.87;87.98;102194.91;5077839;28;20455;-68
2021/11/17 09:47:00;;;;;;;0.00;0.00;;;;;;;8.95;88.08;102200.59;5077324;28;20024;-68
2021/11/17 09:49:44;;;;;;;0.00;0.00;;;;;;;8.98;87.50;102199.06;5041230;28;20036;-69
2021/11/17 09:52:20;;;;;;;0.00;0.00;;;;;;;9.07;86.93;102210.03;5068357;28;20045;-69
2021/11/17 09:54:46;;;;;;;;;;;;;;;9.13;86.06;102209.47;5077620;28;20028;-68
2021/11/17 09:57:45;;;;;;;0.00;0.00;;;;;;;9.22;85.76;102214.31;5056030;28;20027;-66
2021/11/17 10:00:25;;;;;;;0.00;0.00;;;;;;;9.30;85.49;102222.56;5042003;28;20047;-66
2021/11/17 10:02:54;;;;;;;0.10;0.10;;;;;;;9.32;84.63;102220.94;5057800;28;20021;-65
2021/11/17 10:05:24;;;;;;;0.03;0.03;;;;;;;9.33;84.13;102222.72;5055802;28;20280;-67
2021/11/17 10:08:30;;;;;;;0.10;0.10;;;;;;;9.34;83.29;102219.31;5056069;28;20335;-66
2021/11/17 10:13:39;;;;;;;0.10;0.10;;;;;;;9.41;82.08;102225.78;5077711;28;20049;-66
2021/11/17 10:16:05;;;;;;;0.20;0.20;;;;;;;9.43;81.72;102227.69;5060159;28;20385;-66
2021/11/17 10:18:37;;;;;;;0.10;0.10;;;;;;;9.52;80.73;102235.09;5059814;28;20028;-67
2021/11/17 10:21:11;;;;;;;0.30;0.30;;;;;;;9.62;79.68;102226.97;5076705;28;20048;-71
2021/11/17 10:23:58;;;;;;;0.20;0.20;;;;;;;9.64;80.07;102234.00;5077146;28;20048;-66
2021/11/17 10:26:24;;;;;;;0.10;0.10;;;;;;;9.68;78.88;102229.00;5059668;28;20028;-69
2021/11/17 10:28:54;;;;;;;0.20;0.20;;;;;;;9.78;79.06;102245.19;5059312;28;20032;-67
2021/11/17 10:31:30;;;;;;;0.10;0.10;;;;;;;9.91;78.53;102245.06;5077191;28;20074;-65
2021/11/17 10:34:04;;;;;;;0.13;0.13;;;;;;;9.99;77.22;102253.31;5059134;28;20048;-65
2021/11/17 10:36:58;;;;;;;0.20;0.20;;;;;;;10.02;77.88;102240.38;5073996;28;20300;-64
2021/11/17 10:39:31;;;;;;;0.30;0.30;;;;;;;10.00;77.57;102249.88;5076329;28;20063;-64
2021/11/17 10:42:07;;;;;;;0.30;0.30;;;;;;;9.98;76.64;102252.41;5076763;28;20028;-66
2021/11/17 10:44:41;;;;;;;0.40;0.40;;;;;;;9.93;76.74;102251.25;5077227;28;20075;-66
2021/11/17 10:47:29;;;;;;;0.30;0.30;;;;;;;10.01;73.49;102259.50;5076437;28;20386;-64
2021/11/17 10:50:13;;;;;;;0.30;0.30;;;;;;;10.10;73.24;102251.25;5058349;28;20020;-67
2021/11/17 10:52:56;;;;;;;0.20;0.20;;;;;;;10.14;72.62;102251.50;5042585;28;20059;-68
2021/11/17 10:55:32;;;;;;;0.40;0.40;;;;;;;10.29;72.37;102251.38;5073291;28;20071;-67
2021/11/17 10:57:58;;;;;;;0.40;0.40;;;;;;;10.38;71.95;102255.31;5051772;28;20041;-68
2021/11/17 11:00:49;;;;;;;0.50;0.50;;;;;;;10.43;70.41;102254.78;5076912;28;20111;-70
2021/11/17 11:03:16;;;;;;;0.50;0.50;;;;;;;10.52;71.60;102261.31;5044670;28;20045;-65
2021/11/17 11:05:47;;;;;;;0.50;0.50;;;;;;;10.51;71.44;102265.63;5059116;28;20039;-67
2021/11/17 11:08:21;;;;;;;0.50;0.50;;;;;;;10.44;70.37;102253.97;5075034;28;20025;-68
2021/11/17 11:10:50;;;;;;;0.30;0.30;;;;;;;10.46;71.07;102267.09;5059401;28;20476;-67
2021/11/17 11:13:22;;;;;;;0.30;0.30;;;;;;;10.49;71.00;102255.91;5075808;28;20032;-69
2021/11/17 11:16:20;;;;;;;0.40;0.40;;;;;;;10.35;70.37;102260.41;5056869;28;20028;-69
2021/11/17 11:19:15;;;;;;;0.30;0.30;;;;;;;10.27;70.35;102254.78;5061766;28;20063;-70
2021/11/17 11:21:43;;;;;;;0.40;0.40;;;;;;;10.40;68.35;102256.31;5080672;28;20026;-70
2021/11/17 11:24:30;;;;;;;0.50;0.50;;;;;;;10.43;68.86;102259.09;5080241;28;20021;-70
2021/11/17 11:26:58;;;;;;;;;;;;;;;10.42;69.23;102255.56;5068742;28;20021;-67
2021/11/17 11:29:33;;;;;;;0.30;0.30;;;;;;;10.26;68.47;102248.63;5079678;28;20282;-66
2021/11/17 11:32:00;;;;;;;0.30;0.30;;;;;;;10.15;70.38;102250.69;5045478;28;20036;-68
2021/11/17 11:34:47;;;;;;;0.40;0.40;;;;;;;10.01;70.77;102251.66;5061404;28;20107;-68
2021/11/17 11:37:32;;;;;;;0.30;0.30;;;;;;;9.97;70.72;102249.72;5079420;28;20303;-70
2021/11/17 11:40:10;;;;;;;0.30;0.30;;;;;;;10.01;70.91;102262.13;5080002;28;20028;-72
2021/11/17 11:43:00;;;;;;;0.37;0.37;;;;;;;10.00;71.30;102258.63;5079975;28;20029;-66
2021/11/17 11:45:26;;;;;;;0.40;0.40;;;;;;;9.98;71.73;102265.50;5060776;28;20039;-69
2021/11/17 11:48:00;;;;;;;0.37;0.37;;;;;;;10.02;72.25;102264.84;5079518;28;20029;-67
2021/11/17 11:50:35;;;;;;;0.40;0.40;;;;;;;10.03;73.03;102273.59;5079371;28;20032;-71
2021/11/17 11:53:09;;;;;;;0.27;0.27;;;;;;;10.00;72.57;102266.47;5079923;28;20143;-68
2021/11/17 11:55:49;;;;;;;0.20;0.20;;;;;;;10.00;72.42;102269.09;5079780;28;20032;-69
2021/11/17 11:58:21;;;;;;;0.20;0.20;;;;;;;10.00;72.45;102276.94;5079138;28;20070;-69
2021/11/17 12:01:27;;;;;;;0.30;0.30;;;;;;;9.98;71.92;102269.81;5079776;28;20099;-69
2021/11/17 12:04:08;;;;;;;0.35;0.35;;;;;;;9.92;72.32;102274.72;5034878;28;20100;-70
2021/11/17 12:07:00;;;;;;;0.50;0.50;;;;;;;9.90;72.50;102282.47;5042046;28;20040;-71
2021/11/17 12:09:35;;;;;;;0.30;0.30;;;;;;;9.96;72.09;102280.19;5057257;28;20095;-68
2021/11/17 12:12:22;;;;;;;0.30;0.30;;;;;;;10.02;72.80;102279.63;5079396;28;20043;-68
2021/11/17 12:14:51;;;;;;;0.30;0.30;;;;;;;10.07;73.84;102286.00;5078117;28;20074;-69
2021/11/17 12:17:22;;;;;;;0.30;0.30;;;;;;;10.13;72.46;102280.19;5078453;28;20037;-71
2021/11/17 12:19:55;;;;;;;0.50;0.50;;;;;;;10.08;71.66;102287.81;5078932;28;20046;-68
2021/11/17 12:22:42;;;;;;;0.47;0.47;;;;;;;10.14;71.56;102295.09;5079209;28;20017;-69
2021/11/17 12:25:20;;;;;;;0.40;0.40;;;;;;;10.37;71.44;102293.69;5078830;28;20401;-71
2021/11/17 12:27:47;;;;;;;0.30;0.30;;;;;;;10.49;69.98;102303.03;5078263;28;20048;-68
2021/11/17 12:30:28;;;;;;;0.50;0.50;;;;;;;10.45;69.69;102291.50;5078899;28;20115;-71
2021/11/17 12:32:57;;;;;;;0.40;0.40;;;;;;;10.38;69.91;102302.44;5079262;28;20021;-69
2021/11/17 12:35:30;;;;;;;0.40;0.40;;;;;;;10.33;71.38;102306.56;5078605;28;20032;-68
2021/11/17 12:38:09;;;;;;;0.50;0.50;;;;;;;10.27;71.31;102302.78;5078825;28;20064;-68
2021/11/17 12:40:34;;;;;;;0.60;0.60;;;;;;;10.27;70.79;102302.78;5078602;28;20040;-67
2021/11/17 12:43:03;;;;;;;0.40;0.40;;;;;;;10.23;69.85;102300.84;5078812;28;20069;-67
2021/11/17 12:45:31;;;;;;;0.30;0.30;;;;;;;10.18;70.72;102302.28;5076984;28;20016;-70
2021/11/17 12:48:03;;;;;;;0.37;0.37;;;;;;;10.09;70.47;102307.94;5058793;28;20032;-69
2021/11/17 12:50:39;;;;;;;0.40;0.40;;;;;;;9.99;70.22;102300.41;5071040;28;20371;-70
2021/11/17 12:53:20;;;;;;;0.57;0.57;;;;;;;9.88;70.93;102305.06;5061517;28;20398;-69
2021/11/17 12:56:15;;;;;;;0.47;0.47;;;;;;;9.87;70.32;102300.63;5061584;28;20017;-69
2021/11/17 12:58:44;;;;;;;0.47;0.47;;;;;;;9.86;70.50;102307.59;5078055;28;20048;-68
2021/11/17 13:01:10;;;;;;;0.40;0.40;;;;;;;9.86;69.49;102307.59;5078487;28;20025;-70
2021/11/17 13:03:46;;;;;;;0.40;0.40;;;;;;;9.92;69.69;102316.59;5060960;28;20051;-69
2021/11/17 13:06:45;;;;;;;0.30;0.30;;;;;;;9.99;69.63;102321.34;5078519;28;20064;-70
2021/11/17 13:09:23;;;;;;;0.43;0.43;;;;;;;9.95;69.15;102320.28;5077983;28;20082;-70
2021/11/17 13:12:00;;;;;;;0.30;0.30;;;;;;;9.96;68.56;102324.69;5077696;28;20040;-69
2021/11/17 13:14:33;;;;;;;0.40;0.40;;;;;;;9.85;69.53;102328.44;5060750;28;20111;-71
2021/11/17 13:17:21;;;;;;;0.40;0.40;;;;;;;9.75;69.35;102333.16;5058749;28;20101;-71
2021/11/17 13:19:51;;;;;;;0.40;0.40;;;;;;;9.64;68.90;102331.66;5073959;28;20020;-67
2021/11/17 13:22:25;;;;;;;0.33;0.33;;;;;;;9.57;69.06;102343.50;5077141;28;20024;-70
2021/11/17 13:24:54;;;;;;;0.60;0.60;;;;;;;9.51;69.57;102343.13;5073231;28;20107;-68
2021/11/17 13:27:24;;;;;;;0.37;0.37;;;;;;;9.46;70.01;102339.34;5059526;28;20041;-69
2021/11/17 13:30:14;;;;;;;0.37;0.37;;;;;;;9.41;68.73;102336.47;5073842;28;20021;-71
2021/11/17 13:32:45;;;;;;;0.30;0.30;;;;;;;9.40;69.36;102324.22;5075150;28;20059;-69
2021/11/17 13:35:24;;;;;;;0.43;0.43;;;;;;;9.44;68.65;102322.69;5073877;28;20020;-68
2021/11/17 13:37:50;;;;;;;0.40;0.40;;;;;;;9.48;68.20;102328.16;5075292;28;20052;-70
2021/11/17 13:40:21;;;;;;;0.40;0.40;;;;;;;9.56;67.98;102338.16;5075716;28;20325;-70
2021/11/17 13:42:48;;;;;;;0.40;0.40;;;;;;;9.59;67.56;102318.31;5076776;28;20405;-69
2021/11/17 13:45:19;;;;;;;0.50;0.50;;;;;;;9.62;66.88;102321.13;5075893;28;20032;-69
2021/11/17 13:47:45;;;;;;;0.57;0.57;;;;;;;9.65;66.94;102327.34;5076860;28;20049;-71
2021/11/17 13:50:12;;;;;;;0.53;0.53;;;;;;;9.67;67.68;102336.16;5040595;28;20043;-72
2021/11/17 13:52:40;;;;;;;0.43;0.43;;;;;;;9.70;66.86;102331.09;5059211;28;20129;-70
2021/11/17 13:55:09;;;;;;;0.53;0.53;;;;;;;9.73;66.73;102332.16;5076187;28;20405;-70
2021/11/17 13:57:35;;;;;;;0.30;0.30;;;;;;;9.72;66.47;102329.47;5073818;28;20043;-71
2021/11/17 14:00:04;;;;;;;0.40;0.40;;;;;;;9.70;67.09;102326.78;5058629;28;20020;-69
2021/11/17 14:02:29;;;;;;;0.40;0.40;;;;;;;9.68;67.92;102332.72;5059052;28;20029;-70
2021/11/17 14:04:55;;;;;;;0.47;0.47;;;;;;;9.62;68.29;102344.66;5076053;28;20297;-69
2021/11/17 14:07:21;;;;;;;0.37;0.37;;;;;;;9.56;68.88;102346.00;5058063;28;20395;-69
2021/11/17 14:09:46;;;;;;;0.30;0.30;;;;;;;9.54;69.33;102351.19;5041785;28;20020;-69
2021/11/17 14:12:13;;;;;;;0.30;0.30;;;;;;;9.49;70.36;102350.00;5075633;28;20123;-65
2021/11/17 14:14:38;;;;;;;0.40;0.40;;;;;;;9.43;70.02;102353.19;5058409;28;20029;-69
2021/11/17 14:17:05;;;;;;;0.30;0.30;;;;;;;9.42;70.43;102366.16;5077142;28;20078;-68
2021/11/17 14:19:31;;;;;;;0.50;0.50;;;;;;;9.40;70.50;102359.94;5059432;28;20041;-68
2021/11/17 14:21:57;;;;;;;0.80;0.80;;;;;;;9.36;70.48;102361.47;5076015;28;20044;-67
2021/11/17 14:24:23;;;;;;;0.27;0.27;;;;;;;9.37;70.34;102355.44;5075907;28;20123;-69
2021/11/17 14:26:49;;;;;;;0.20;0.20;;;;;;;9.35;70.11;102360.56;5055928;28;20032;-67
2021/11/17 14:29:19;;;;;;;0.30;0.30;;;;;;;9.32;71.14;102381.31;5074279;28;20051;-68
2021/11/17 14:31:50;;;;;;;0.30;0.30;;;;;;;9.29;71.09;102378.50;5075925;28;20073;-69
2021/11/17 14:34:16;;;;;;;0.40;0.40;;;;;;;9.26;70.49;102380.94;5054726;28;20028;-70
2021/11/17 14:36:53;;;;;;;0.30;0.30;;;;;;;9.26;70.50;102377.41;5075879;28;20077;-68